Pagrindinis puslapis
METAR-TAF:

METAR-TAF

Oro uostai :

Gracas, Austrija

platuma: 47-00N, ilguma: 015-26E, Aukštis: 340 m

Dabartinis oras

Ataskaita buvo paskelbta 43 minutes, ne 09:50 UTC
Vėjas 5 kt iš Pietų/Pietryčių, svyruoja nuo Rytų ir Pietų/Pietvakarių
Temperatūra 14°C
Drėgmė 47%
Slėgis 1028 hPa
Matomumas 10 km arba daugiau
Mažai debesys ne aukštis 6000 ft
Išsisklaidę debesys ne aukštis 30000 ft

METAR: LOWG 200950Z 16005KT 100V210 9999 FEW060 SCT300 14/03 Q1028 NOSIG

Laikas: 12:33 (10:33 UTC)

Prognozė

Ataskaita buvo paskelbta 5 valandos ir 18 minutes, ne 05:15 UTC
Prognozė galioja nuo 20 metu 06 UTC su 21 metu 06 UTC
Vėjas 2 kt nuo kintamojo kryptimis
Matomumas 10 km arba daugiau
Mažai debesys ne aukštis 5000 ft
Laikinai
nuo 20 metu 11 UTC su 20 metu 16 UTC
Vėjas 7 kt iš Pietryčių
Tikimybė 40% :
Laikinai
nuo 21 metu 02 UTC su 21 metu 06 UTC
Matomumas: 0800 m
Mažai debesys ne aukštis 100 ft
Rūkas lopais

TAF: LOWG 200515Z 2006/2106 VRB02KT 9999 FEW050 TX16/2014Z TN04/2104Z TEMPO 2011/2016 13007KT PROB40 TEMPO 2102/2106 0800 BCFG FEW001

Orai ataskaitas ir orų prognozės (METAR, TAF).

turimą stotys yra geltonos ir raudonos taškus žemėlapyje.

Perkelti pele per norėdami pamatyti stoties vardą.

Tada spustelėkite, norėdami matyti oro stebėjimo ir prognozės.

Norėdami pakeisti žemėlapį: spustelėkite ant žalios mygtukų su juodo kryžiaus žemyn,; žalią mygtuką su brūkšneliu, jei norite nutolinti; arba žalių rodyklių gretimoms žemėlapius.


METAR-TAF: